sensor_id;sensor_type;location;lat;lon;timestamp;P1;durP1;ratioP1;P2;durP2;ratioP2
3867;SDS011;1949;48.152;11.528;2023-08-06T00:01:18;7.23;;;3.10;;
3867;SDS011;1949;48.152;11.528;2023-08-06T00:03:46;4.43;;;3.30;;
3867;SDS011;1949;48.152;11.528;2023-08-06T00:06:13;11.73;;;2.63;;
3867;SDS011;1949;48.152;11.528;2023-08-06T00:08:42;4.43;;;2.57;;
3867;SDS011;1949;48.152;11.528;2023-08-06T00:11:08;5.93;;;2.50;;
3867;SDS011;1949;48.152;11.528;2023-08-06T00:13:40;4.33;;;2.90;;
3867;SDS011;1949;48.152;11.528;2023-08-06T00:16:10;3.40;;;2.53;;
3867;SDS011;1949;48.152;11.528;2023-08-06T00:18:38;2.80;;;2.47;;
3867;SDS011;1949;48.152;11.528;2023-08-06T00:23:33;2.30;;;2.10;;
3867;SDS011;1949;48.152;11.528;2023-08-06T00:26:01;2.50;;;2.07;;
3867;SDS011;1949;48.152;11.528;2023-08-06T00:28:26;3.07;;;2.30;;
3867;SDS011;1949;48.152;11.528;2023-08-06T00:30:53;3.37;;;2.53;;
3867;SDS011;1949;48.152;11.528;2023-08-06T00:33:20;4.63;;;2.63;;
3867;SDS011;1949;48.152;11.528;2023-08-06T00:35:50;4.27;;;2.33;;
3867;SDS011;1949;48.152;11.528;2023-08-06T00:38:22;5.33;;;2.03;;
3867;SDS011;1949;48.152;11.528;2023-08-06T00:43:20;2.20;;;2.00;;
3867;SDS011;1949;48.152;11.528;2023-08-06T00:48:17;3.90;;;2.53;;
3867;SDS011;1949;48.152;11.528;2023-08-06T00:50:46;1.90;;;1.43;;
3867;SDS011;1949;48.152;11.528;2023-08-06T00:53:12;2.23;;;2.03;;
3867;SDS011;1949;48.152;11.528;2023-08-06T00:55:39;2.70;;;2.23;;
3867;SDS011;1949;48.152;11.528;2023-08-06T00:58:11;6.63;;;2.07;;
3867;SDS011;1949;48.152;11.528;2023-08-06T01:00:48;3.33;;;2.10;;
3867;SDS011;1949;48.152;11.528;2023-08-06T01:03:15;5.77;;;2.73;;
3867;SDS011;1949;48.152;11.528;2023-08-06T01:05:42;3.87;;;2.90;;
3867;SDS011;1949;48.152;11.528;2023-08-06T01:13:45;2.10;;;1.67;;
3867;SDS011;1949;48.152;11.528;2023-08-06T01:16:18;2.67;;;2.00;;
3867;SDS011;1949;48.152;11.528;2023-08-06T01:23:56;11.47;;;2.40;;
3867;SDS011;1949;48.152;11.528;2023-08-06T01:29:10;2.87;;;2.37;;
3867;SDS011;1949;48.152;11.528;2023-08-06T01:31:51;3.43;;;2.70;;
3867;SDS011;1949;48.152;11.528;2023-08-06T01:34:24;3.33;;;2.50;;
3867;SDS011;1949;48.152;11.528;2023-08-06T01:39:25;4.90;;;3.10;;
3867;SDS011;1949;48.152;11.528;2023-08-06T01:41:55;5.33;;;2.70;;
3867;SDS011;1949;48.152;11.528;2023-08-06T01:44:24;10.13;;;2.50;;
3867;SDS011;1949;48.152;11.528;2023-08-06T01:46:50;3.60;;;2.73;;
3867;SDS011;1949;48.152;11.528;2023-08-06T01:49:16;5.97;;;2.87;;
3867;SDS011;1949;48.152;11.528;2023-08-06T01:51:42;3.67;;;2.23;;
3867;SDS011;1949;48.152;11.528;2023-08-06T01:54:12;4.17;;;3.00;;
3867;SDS011;1949;48.152;11.528;2023-08-06T01:56:38;7.53;;;2.17;;
3867;SDS011;1949;48.152;11.528;2023-08-06T01:59:11;3.60;;;2.37;;
3867;SDS011;1949;48.152;11.528;2023-08-06T02:01:39;7.20;;;3.20;;
3867;SDS011;1949;48.152;11.528;2023-08-06T02:04:09;3.40;;;2.17;;
3867;SDS011;1949;48.152;11.528;2023-08-06T02:06:35;2.80;;;2.13;;
3867;SDS011;1949;48.152;11.528;2023-08-06T02:09:08;2.90;;;2.27;;
3867;SDS011;1949;48.152;11.528;2023-08-06T02:11:45;6.10;;;1.80;;
3867;SDS011;1949;48.152;11.528;2023-08-06T02:14:13;3.57;;;2.43;;
3867;SDS011;1949;48.152;11.528;2023-08-06T02:19:11;3.03;;;2.03;;
3867;SDS011;1949;48.152;11.528;2023-08-06T02:21:51;2.20;;;1.87;;
3867;SDS011;1949;48.152;11.528;2023-08-06T02:24:17;4.10;;;2.70;;
3867;SDS011;1949;48.152;11.528;2023-08-06T02:26:43;3.10;;;1.83;;
3867;SDS011;1949;48.152;11.528;2023-08-06T02:31:37;2.73;;;2.50;;
3867;SDS011;1949;48.152;11.528;2023-08-06T02:34:03;2.67;;;1.90;;
3867;SDS011;1949;48.152;11.528;2023-08-06T02:36:29;1.70;;;1.60;;
3867;SDS011;1949;48.152;11.528;2023-08-06T02:38:55;1.80;;;1.70;;
3867;SDS011;1949;48.152;11.528;2023-08-06T02:41:20;3.13;;;2.40;;
3867;SDS011;1949;48.152;11.528;2023-08-06T02:43:46;4.33;;;2.00;;
3867;SDS011;1949;48.152;11.528;2023-08-06T02:46:13;2.30;;;1.93;;
3867;SDS011;1949;48.152;11.528;2023-08-06T02:48:38;2.50;;;1.73;;
3867;SDS011;1949;48.152;11.528;2023-08-06T02:51:04;2.80;;;1.80;;
3867;SDS011;1949;48.152;11.528;2023-08-06T02:53:34;2.70;;;2.03;;
3867;SDS011;1949;48.152;11.528;2023-08-06T02:55:59;2.20;;;1.90;;
3867;SDS011;1949;48.152;11.528;2023-08-06T02:58:26;1.80;;;1.50;;
3867;SDS011;1949;48.152;11.528;2023-08-06T03:01:01;5.60;;;2.10;;
3867;SDS011;1949;48.152;11.528;2023-08-06T03:03:34;5.13;;;2.07;;
3867;SDS011;1949;48.152;11.528;2023-08-06T03:06:04;1.83;;;1.50;;
3867;SDS011;1949;48.152;11.528;2023-08-06T03:08:30;2.37;;;1.83;;
3867;SDS011;1949;48.152;11.528;2023-08-06T03:11:00;2.10;;;1.60;;
3867;SDS011;1949;48.152;11.528;2023-08-06T03:15:58;2.20;;;1.40;;
3867;SDS011;1949;48.152;11.528;2023-08-06T03:18:24;3.00;;;1.70;;
3867;SDS011;1949;48.152;11.528;2023-08-06T03:20:54;1.80;;;1.47;;
3867;SDS011;1949;48.152;11.528;2023-08-06T03:23:29;2.87;;;1.40;;
3867;SDS011;1949;48.152;11.528;2023-08-06T03:28:32;5.03;;;1.50;;
3867;SDS011;1949;48.152;11.528;2023-08-06T03:33:36;11.80;;;2.10;;
3867;SDS011;1949;48.152;11.528;2023-08-06T03:36:03;4.90;;;1.80;;
3867;SDS011;1949;48.152;11.528;2023-08-06T03:38:28;6.40;;;1.87;;
3867;SDS011;1949;48.152;11.528;2023-08-06T03:40:54;3.93;;;1.80;;
3867;SDS011;1949;48.152;11.528;2023-08-06T03:43:20;5.03;;;2.40;;
3867;SDS011;1949;48.152;11.528;2023-08-06T03:48:16;6.23;;;2.97;;
3867;SDS011;1949;48.152;11.528;2023-08-06T03:50:42;1.60;;;1.40;;
3867;SDS011;1949;48.152;11.528;2023-08-06T03:53:07;3.10;;;1.70;;
3867;SDS011;1949;48.152;11.528;2023-08-06T03:55:36;3.00;;;1.70;;
3867;SDS011;1949;48.152;11.528;2023-08-06T03:58:03;2.43;;;1.80;;
3867;SDS011;1949;48.152;11.528;2023-08-06T04:00:30;1.80;;;1.50;;
3867;SDS011;1949;48.152;11.528;2023-08-06T04:02:55;2.07;;;1.70;;
3867;SDS011;1949;48.152;11.528;2023-08-06T04:05:26;4.93;;;1.70;;
3867;SDS011;1949;48.152;11.528;2023-08-06T04:07:52;3.03;;;2.23;;
3867;SDS011;1949;48.152;11.528;2023-08-06T04:10:23;1.93;;;1.43;;
3867;SDS011;1949;48.152;11.528;2023-08-06T04:12:49;5.60;;;2.70;;
3867;SDS011;1949;48.152;11.528;2023-08-06T04:17:53;3.63;;;1.40;;
3867;SDS011;1949;48.152;11.528;2023-08-06T04:22:47;1.40;;;1.30;;
3867;SDS011;1949;48.152;11.528;2023-08-06T04:25:14;5.20;;;2.13;;
3867;SDS011;1949;48.152;11.528;2023-08-06T04:27:42;2.40;;;1.57;;
3867;SDS011;1949;48.152;11.528;2023-08-06T04:30:07;3.57;;;1.70;;
3867;SDS011;1949;48.152;11.528;2023-08-06T04:32:35;4.90;;;2.23;;
3867;SDS011;1949;48.152;11.528;2023-08-06T04:35:00;5.43;;;2.43;;
3867;SDS011;1949;48.152;11.528;2023-08-06T04:37:27;3.47;;;1.70;;
3867;SDS011;1949;48.152;11.528;2023-08-06T04:39:54;8.17;;;3.47;;
3867;SDS011;1949;48.152;11.528;2023-08-06T04:42:20;3.83;;;1.90;;
3867;SDS011;1949;48.152;11.528;2023-08-06T04:44:49;2.30;;;1.80;;
3867;SDS011;1949;48.152;11.528;2023-08-06T04:47:17;4.10;;;2.60;;
3867;SDS011;1949;48.152;11.528;2023-08-06T04:49:45;4.33;;;2.57;;
3867;SDS011;1949;48.152;11.528;2023-08-06T04:52:11;3.57;;;2.10;;
3867;SDS011;1949;48.152;11.528;2023-08-06T04:54:36;5.70;;;2.60;;
3867;SDS011;1949;48.152;11.528;2023-08-06T04:57:03;2.03;;;1.57;;
3867;SDS011;1949;48.152;11.528;2023-08-06T04:59:32;7.77;;;3.57;;
3867;SDS011;1949;48.152;11.528;2023-08-06T05:01:58;5.03;;;2.10;;
3867;SDS011;1949;48.152;11.528;2023-08-06T05:04:24;4.70;;;2.53;;
3867;SDS011;1949;48.152;11.528;2023-08-06T05:06:50;15.10;;;2.23;;
3867;SDS011;1949;48.152;11.528;2023-08-06T05:09:16;8.40;;;4.10;;
3867;SDS011;1949;48.152;11.528;2023-08-06T05:11:42;2.70;;;1.73;;
3867;SDS011;1949;48.152;11.528;2023-08-06T05:14:07;2.57;;;1.97;;
3867;SDS011;1949;48.152;11.528;2023-08-06T05:16:34;3.60;;;2.50;;
3867;SDS011;1949;48.152;11.528;2023-08-06T05:19:00;8.43;;;2.50;;
3867;SDS011;1949;48.152;11.528;2023-08-06T05:21:28;5.43;;;3.13;;
3867;SDS011;1949;48.152;11.528;2023-08-06T05:23:54;1.97;;;1.77;;
3867;SDS011;1949;48.152;11.528;2023-08-06T05:26:21;4.97;;;2.70;;
3867;SDS011;1949;48.152;11.528;2023-08-06T05:28:46;7.60;;;2.30;;
3867;SDS011;1949;48.152;11.528;2023-08-06T05:31:12;4.00;;;2.23;;
3867;SDS011;1949;48.152;11.528;2023-08-06T05:33:39;5.17;;;2.90;;
3867;SDS011;1949;48.152;11.528;2023-08-06T05:36:06;4.90;;;2.50;;
3867;SDS011;1949;48.152;11.528;2023-08-06T05:38:31;4.03;;;2.07;;
3867;SDS011;1949;48.152;11.528;2023-08-06T05:40:57;2.23;;;1.57;;
3867;SDS011;1949;48.152;11.528;2023-08-06T05:43:22;13.10;;;1.80;;
3867;SDS011;1949;48.152;11.528;2023-08-06T05:45:52;2.20;;;1.60;;
3867;SDS011;1949;48.152;11.528;2023-08-06T05:48:19;3.03;;;1.73;;
3867;SDS011;1949;48.152;11.528;2023-08-06T05:50:46;3.10;;;1.80;;
3867;SDS011;1949;48.152;11.528;2023-08-06T05:53:11;5.90;;;2.37;;
3867;SDS011;1949;48.152;11.528;2023-08-06T05:55:38;2.80;;;1.80;;
3867;SDS011;1949;48.152;11.528;2023-08-06T05:58:05;2.50;;;1.70;;
3867;SDS011;1949;48.152;11.528;2023-08-06T06:00:32;6.07;;;1.97;;
3867;SDS011;1949;48.152;11.528;2023-08-06T06:03:04;2.90;;;2.27;;
3867;SDS011;1949;48.152;11.528;2023-08-06T06:05:29;3.00;;;2.10;;
3867;SDS011;1949;48.152;11.528;2023-08-06T06:07:55;3.63;;;2.17;;
3867;SDS011;1949;48.152;11.528;2023-08-06T06:10:21;2.53;;;1.40;;
3867;SDS011;1949;48.152;11.528;2023-08-06T06:12:46;11.83;;;2.83;;
3867;SDS011;1949;48.152;11.528;2023-08-06T06:15:12;2.50;;;1.33;;
3867;SDS011;1949;48.152;11.528;2023-08-06T06:17:39;3.03;;;1.80;;
3867;SDS011;1949;48.152;11.528;2023-08-06T06:20:07;3.10;;;1.50;;
3867;SDS011;1949;48.152;11.528;2023-08-06T06:22:33;2.43;;;1.50;;
3867;SDS011;1949;48.152;11.528;2023-08-06T06:24:58;1.37;;;0.97;;
3867;SDS011;1949;48.152;11.528;2023-08-06T06:27:25;3.67;;;1.50;;
3867;SDS011;1949;48.152;11.528;2023-08-06T06:29:50;3.47;;;2.40;;
3867;SDS011;1949;48.152;11.528;2023-08-06T06:32:20;1.77;;;1.30;;
3867;SDS011;1949;48.152;11.528;2023-08-06T06:34:46;2.30;;;1.43;;
3867;SDS011;1949;48.152;11.528;2023-08-06T06:37:12;2.37;;;1.70;;
3867;SDS011;1949;48.152;11.528;2023-08-06T06:39:38;1.40;;;1.30;;
3867;SDS011;1949;48.152;11.528;2023-08-06T06:42:04;1.87;;;1.57;;
3867;SDS011;1949;48.152;11.528;2023-08-06T06:44:30;1.47;;;1.37;;
3867;SDS011;1949;48.152;11.528;2023-08-06T06:46:58;3.00;;;1.40;;
3867;SDS011;1949;48.152;11.528;2023-08-06T06:49:23;3.97;;;2.60;;
3867;SDS011;1949;48.152;11.528;2023-08-06T06:51:49;2.60;;;1.40;;
3867;SDS011;1949;48.152;11.528;2023-08-06T06:54:16;6.40;;;1.60;;
3867;SDS011;1949;48.152;11.528;2023-08-06T06:56:41;2.00;;;1.40;;
3867;SDS011;1949;48.152;11.528;2023-08-06T06:59:10;2.50;;;1.67;;
3867;SDS011;1949;48.152;11.528;2023-08-06T07:01:42;3.60;;;1.80;;
3867;SDS011;1949;48.152;11.528;2023-08-06T07:04:08;1.77;;;1.23;;
3867;SDS011;1949;48.152;11.528;2023-08-06T07:06:38;1.10;;;0.90;;
3867;SDS011;1949;48.152;11.528;2023-08-06T07:09:11;2.03;;;1.10;;
3867;SDS011;1949;48.152;11.528;2023-08-06T07:14:34;1.43;;;0.93;;
3867;SDS011;1949;48.152;11.528;2023-08-06T07:17:01;1.33;;;0.93;;
3867;SDS011;1949;48.152;11.528;2023-08-06T07:19:28;6.07;;;2.03;;
3867;SDS011;1949;48.152;11.528;2023-08-06T07:21:56;1.33;;;0.90;;
3867;SDS011;1949;48.152;11.528;2023-08-06T07:27:04;2.00;;;1.00;;
3867;SDS011;1949;48.152;11.528;2023-08-06T07:29:32;1.40;;;1.00;;
3867;SDS011;1949;48.152;11.528;2023-08-06T07:31:59;2.27;;;1.13;;
3867;SDS011;1949;48.152;11.528;2023-08-06T07:34:25;3.80;;;1.87;;
3867;SDS011;1949;48.152;11.528;2023-08-06T07:36:55;1.37;;;1.03;;
3867;SDS011;1949;48.152;11.528;2023-08-06T07:39:20;1.30;;;0.90;;
3867;SDS011;1949;48.152;11.528;2023-08-06T07:41:47;2.70;;;1.03;;
3867;SDS011;1949;48.152;11.528;2023-08-06T07:44:13;4.20;;;0.93;;
3867;SDS011;1949;48.152;11.528;2023-08-06T07:46:41;1.80;;;0.90;;
3867;SDS011;1949;48.152;11.528;2023-08-06T07:49:07;1.13;;;0.87;;
3867;SDS011;1949;48.152;11.528;2023-08-06T07:51:35;0.80;;;0.70;;
3867;SDS011;1949;48.152;11.528;2023-08-06T07:54:07;6.20;;;1.83;;
3867;SDS011;1949;48.152;11.528;2023-08-06T07:59:02;2.33;;;1.70;;
3867;SDS011;1949;48.152;11.528;2023-08-06T08:01:27;2.57;;;1.30;;
3867;SDS011;1949;48.152;11.528;2023-08-06T08:03:55;2.30;;;1.30;;
3867;SDS011;1949;48.152;11.528;2023-08-06T08:08:53;1.77;;;1.00;;
3867;SDS011;1949;48.152;11.528;2023-08-06T08:11:21;3.23;;;1.10;;
3867;SDS011;1949;48.152;11.528;2023-08-06T08:13:47;1.80;;;0.90;;
3867;SDS011;1949;48.152;11.528;2023-08-06T08:16:13;2.43;;;1.33;;
3867;SDS011;1949;48.152;11.528;2023-08-06T08:18:38;1.27;;;0.90;;
3867;SDS011;1949;48.152;11.528;2023-08-06T08:21:04;1.53;;;1.23;;
3867;SDS011;1949;48.152;11.528;2023-08-06T08:23:31;1.10;;;0.90;;
3867;SDS011;1949;48.152;11.528;2023-08-06T08:25:58;1.57;;;0.97;;
3867;SDS011;1949;48.152;11.528;2023-08-06T08:28:26;5.37;;;0.90;;
3867;SDS011;1949;48.152;11.528;2023-08-06T08:31:01;3.27;;;0.97;;
3867;SDS011;1949;48.152;11.528;2023-08-06T08:35:57;0.97;;;0.80;;
3867;SDS011;1949;48.152;11.528;2023-08-06T08:40:53;1.00;;;0.70;;
3867;SDS011;1949;48.152;11.528;2023-08-06T08:43:22;3.20;;;0.90;;
3867;SDS011;1949;48.152;11.528;2023-08-06T08:45:55;1.27;;;0.83;;
3867;SDS011;1949;48.152;11.528;2023-08-06T08:48:25;1.00;;;0.70;;
3867;SDS011;1949;48.152;11.528;2023-08-06T08:50:52;0.70;;;0.60;;
3867;SDS011;1949;48.152;11.528;2023-08-06T08:53:18;1.00;;;0.73;;
3867;SDS011;1949;48.152;11.528;2023-08-06T08:55:48;1.70;;;0.87;;
3867;SDS011;1949;48.152;11.528;2023-08-06T08:58:16;0.90;;;0.70;;
3867;SDS011;1949;48.152;11.528;2023-08-06T09:00:47;1.10;;;0.87;;
3867;SDS011;1949;48.152;11.528;2023-08-06T09:03:17;0.70;;;0.60;;
3867;SDS011;1949;48.152;11.528;2023-08-06T09:05:44;0.60;;;0.60;;
3867;SDS011;1949;48.152;11.528;2023-08-06T09:08:24;2.87;;;0.90;;
3867;SDS011;1949;48.152;11.528;2023-08-06T09:13:31;3.23;;;0.60;;
3867;SDS011;1949;48.152;11.528;2023-08-06T09:15:57;1.10;;;0.70;;
3867;SDS011;1949;48.152;11.528;2023-08-06T09:18:26;0.70;;;0.50;;
3867;SDS011;1949;48.152;11.528;2023-08-06T09:21:00;0.60;;;0.50;;
3867;SDS011;1949;48.152;11.528;2023-08-06T09:23:29;2.00;;;0.70;;
3867;SDS011;1949;48.152;11.528;2023-08-06T09:25:58;0.87;;;0.60;;
3867;SDS011;1949;48.152;11.528;2023-08-06T09:28:36;1.70;;;0.67;;
3867;SDS011;1949;48.152;11.528;2023-08-06T09:31:05;1.17;;;0.83;;
3867;SDS011;1949;48.152;11.528;2023-08-06T09:33:37;0.90;;;0.63;;
3867;SDS011;1949;48.152;11.528;2023-08-06T09:36:16;0.70;;;0.53;;
3867;SDS011;1949;48.152;11.528;2023-08-06T09:38:44;4.60;;;2.30;;
3867;SDS011;1949;48.152;11.528;2023-08-06T09:41:09;1.33;;;1.00;;
3867;SDS011;1949;48.152;11.528;2023-08-06T09:43:43;1.40;;;0.90;;
3867;SDS011;1949;48.152;11.528;2023-08-06T09:46:15;4.63;;;0.83;;
3867;SDS011;1949;48.152;11.528;2023-08-06T09:48:46;4.40;;;0.93;;
3867;SDS011;1949;48.152;11.528;2023-08-06T09:51:18;1.47;;;1.37;;
3867;SDS011;1949;48.152;11.528;2023-08-06T09:53:49;1.37;;;0.70;;
3867;SDS011;1949;48.152;11.528;2023-08-06T09:56:17;0.60;;;0.50;;
3867;SDS011;1949;48.152;11.528;2023-08-06T09:58:43;2.40;;;0.60;;
3867;SDS011;1949;48.152;11.528;2023-08-06T10:03:44;2.30;;;0.70;;
3867;SDS011;1949;48.152;11.528;2023-08-06T10:06:13;0.80;;;0.70;;
3867;SDS011;1949;48.152;11.528;2023-08-06T10:08:42;1.43;;;0.60;;
3867;SDS011;1949;48.152;11.528;2023-08-06T10:13:38;1.67;;;0.60;;
3867;SDS011;1949;48.152;11.528;2023-08-06T10:18:36;1.23;;;0.70;;
3867;SDS011;1949;48.152;11.528;2023-08-06T10:21:11;0.97;;;0.73;;
3867;SDS011;1949;48.152;11.528;2023-08-06T10:23:39;1.53;;;0.80;;
3867;SDS011;1949;48.152;11.528;2023-08-06T10:26:07;1.03;;;0.70;;
3867;SDS011;1949;48.152;11.528;2023-08-06T10:28:39;3.60;;;0.60;;
3867;SDS011;1949;48.152;11.528;2023-08-06T10:31:05;0.70;;;0.50;;
3867;SDS011;1949;48.152;11.528;2023-08-06T10:36:26;0.80;;;0.60;;
3867;SDS011;1949;48.152;11.528;2023-08-06T10:38:52;0.60;;;0.50;;
3867;SDS011;1949;48.152;11.528;2023-08-06T10:41:23;0.80;;;0.60;;
3867;SDS011;1949;48.152;11.528;2023-08-06T10:46:44;0.60;;;0.50;;
3867;SDS011;1949;48.152;11.528;2023-08-06T10:49:19;0.70;;;0.60;;
3867;SDS011;1949;48.152;11.528;2023-08-06T10:51:52;1.17;;;0.60;;
3867;SDS011;1949;48.152;11.528;2023-08-06T10:54:23;0.60;;;0.50;;
3867;SDS011;1949;48.152;11.528;2023-08-06T10:56:54;0.90;;;0.60;;
3867;SDS011;1949;48.152;11.528;2023-08-06T10:59:21;7.50;;;0.90;;
3867;SDS011;1949;48.152;11.528;2023-08-06T11:01:48;2.60;;;0.53;;
3867;SDS011;1949;48.152;11.528;2023-08-06T11:04:21;2.70;;;0.50;;
3867;SDS011;1949;48.152;11.528;2023-08-06T11:09:25;0.80;;;0.60;;
3867;SDS011;1949;48.152;11.528;2023-08-06T11:11:52;0.80;;;0.50;;
3867;SDS011;1949;48.152;11.528;2023-08-06T11:14:26;0.60;;;0.50;;
3867;SDS011;1949;48.152;11.528;2023-08-06T11:16:52;0.70;;;0.50;;
3867;SDS011;1949;48.152;11.528;2023-08-06T11:19:22;2.60;;;0.60;;
3867;SDS011;1949;48.152;11.528;2023-08-06T11:21:49;1.20;;;0.50;;
3867;SDS011;1949;48.152;11.528;2023-08-06T11:24:18;3.17;;;0.60;;
3867;SDS011;1949;48.152;11.528;2023-08-06T11:26:45;1.83;;;0.60;;
3867;SDS011;1949;48.152;11.528;2023-08-06T11:29:18;0.60;;;0.50;;
3867;SDS011;1949;48.152;11.528;2023-08-06T11:31:47;2.80;;;0.60;;
3867;SDS011;1949;48.152;11.528;2023-08-06T11:34:13;3.00;;;0.60;;
3867;SDS011;1949;48.152;11.528;2023-08-06T11:36:40;0.60;;;0.50;;
3867;SDS011;1949;48.152;11.528;2023-08-06T11:39:07;0.63;;;0.50;;
3867;SDS011;1949;48.152;11.528;2023-08-06T11:41:35;0.70;;;0.60;;
3867;SDS011;1949;48.152;11.528;2023-08-06T11:44:03;1.07;;;0.53;;
3867;SDS011;1949;48.152;11.528;2023-08-06T11:46:49;1.80;;;0.60;;
3867;SDS011;1949;48.152;11.528;2023-08-06T11:49:15;0.60;;;0.50;;
3867;SDS011;1949;48.152;11.528;2023-08-06T11:51:41;0.90;;;0.50;;
3867;SDS011;1949;48.152;11.528;2023-08-06T11:54:11;0.97;;;0.50;;
3867;SDS011;1949;48.152;11.528;2023-08-06T11:56:37;0.80;;;0.50;;
3867;SDS011;1949;48.152;11.528;2023-08-06T11:59:04;0.77;;;0.50;;
3867;SDS011;1949;48.152;11.528;2023-08-06T12:01:34;0.70;;;0.50;;
3867;SDS011;1949;48.152;11.528;2023-08-06T12:04:00;4.33;;;0.60;;
3867;SDS011;1949;48.152;11.528;2023-08-06T12:06:28;0.60;;;0.50;;
3867;SDS011;1949;48.152;11.528;2023-08-06T12:08:54;1.17;;;0.63;;
3867;SDS011;1949;48.152;11.528;2023-08-06T12:11:23;1.00;;;0.60;;
3867;SDS011;1949;48.152;11.528;2023-08-06T12:13:51;0.70;;;0.50;;
3867;SDS011;1949;48.152;11.528;2023-08-06T12:16:19;0.60;;;0.50;;
3867;SDS011;1949;48.152;11.528;2023-08-06T12:18:46;0.60;;;0.50;;
3867;SDS011;1949;48.152;11.528;2023-08-06T12:21:17;0.60;;;0.50;;
3867;SDS011;1949;48.152;11.528;2023-08-06T12:23:43;0.70;;;0.60;;
3867;SDS011;1949;48.152;11.528;2023-08-06T12:26:10;1.93;;;0.70;;
3867;SDS011;1949;48.152;11.528;2023-08-06T12:31:06;2.00;;;0.53;;
3867;SDS011;1949;48.152;11.528;2023-08-06T12:33:40;0.60;;;0.43;;
3867;SDS011;1949;48.152;11.528;2023-08-06T12:36:07;0.70;;;0.53;;
3867;SDS011;1949;48.152;11.528;2023-08-06T12:38:33;0.80;;;0.80;;
3867;SDS011;1949;48.152;11.528;2023-08-06T12:40:59;1.03;;;0.70;;
3867;SDS011;1949;48.152;11.528;2023-08-06T12:43:25;0.80;;;0.60;;
3867;SDS011;1949;48.152;11.528;2023-08-06T12:45:50;0.70;;;0.70;;
3867;SDS011;1949;48.152;11.528;2023-08-06T12:48:17;0.80;;;0.60;;
3867;SDS011;1949;48.152;11.528;2023-08-06T12:50:53;2.90;;;1.00;;
3867;SDS011;1949;48.152;11.528;2023-08-06T12:53:23;3.00;;;1.10;;
3867;SDS011;1949;48.152;11.528;2023-08-06T12:55:49;0.70;;;0.70;;
3867;SDS011;1949;48.152;11.528;2023-08-06T12:58:14;3.17;;;0.90;;
3867;SDS011;1949;48.152;11.528;2023-08-06T13:03:12;1.37;;;1.10;;
3867;SDS011;1949;48.152;11.528;2023-08-06T13:05:41;1.13;;;0.73;;
3867;SDS011;1949;48.152;11.528;2023-08-06T13:08:08;1.23;;;0.73;;
3867;SDS011;1949;48.152;11.528;2023-08-06T13:10:33;1.43;;;1.00;;
3867;SDS011;1949;48.152;11.528;2023-08-06T13:13:01;0.83;;;0.57;;
3867;SDS011;1949;48.152;11.528;2023-08-06T13:15:29;0.70;;;0.70;;
3867;SDS011;1949;48.152;11.528;2023-08-06T13:17:55;0.97;;;0.67;;
3867;SDS011;1949;48.152;11.528;2023-08-06T13:20:24;6.73;;;0.77;;
3867;SDS011;1949;48.152;11.528;2023-08-06T13:22:51;0.83;;;0.83;;
3867;SDS011;1949;48.152;11.528;2023-08-06T13:25:21;2.20;;;0.80;;
3867;SDS011;1949;48.152;11.528;2023-08-06T13:27:48;0.90;;;0.53;;
3867;SDS011;1949;48.152;11.528;2023-08-06T13:30:20;1.30;;;0.90;;
3867;SDS011;1949;48.152;11.528;2023-08-06T13:32:48;1.80;;;1.03;;
3867;SDS011;1949;48.152;11.528;2023-08-06T13:35:13;0.90;;;0.70;;
3867;SDS011;1949;48.152;11.528;2023-08-06T13:37:47;0.63;;;0.60;;
3867;SDS011;1949;48.152;11.528;2023-08-06T13:40:15;1.20;;;0.90;;
3867;SDS011;1949;48.152;11.528;2023-08-06T13:42:43;0.80;;;0.77;;
3867;SDS011;1949;48.152;11.528;2023-08-06T13:45:08;1.20;;;0.90;;
3867;SDS011;1949;48.152;11.528;2023-08-06T13:47:35;1.00;;;0.70;;
3867;SDS011;1949;48.152;11.528;2023-08-06T13:50:01;1.40;;;0.90;;
3867;SDS011;1949;48.152;11.528;2023-08-06T13:52:36;0.80;;;0.80;;
3867;SDS011;1949;48.152;11.528;2023-08-06T13:55:11;8.27;;;1.93;;
3867;SDS011;1949;48.152;11.528;2023-08-06T13:57:36;1.33;;;1.10;;
3867;SDS011;1949;48.152;11.528;2023-08-06T14:00:09;2.50;;;1.20;;
3867;SDS011;1949;48.152;11.528;2023-08-06T14:02:35;0.70;;;0.60;;
3867;SDS011;1949;48.152;11.528;2023-08-06T14:05:02;1.00;;;0.60;;
3867;SDS011;1949;48.152;11.528;2023-08-06T14:07:32;0.70;;;0.50;;
3867;SDS011;1949;48.152;11.528;2023-08-06T14:09:59;1.00;;;0.80;;
3867;SDS011;1949;48.152;11.528;2023-08-06T14:15:02;0.70;;;0.70;;
3867;SDS011;1949;48.152;11.528;2023-08-06T14:17:29;0.70;;;0.60;;
3867;SDS011;1949;48.152;11.528;2023-08-06T14:19:55;0.80;;;0.50;;
3867;SDS011;1949;48.152;11.528;2023-08-06T14:22:21;0.80;;;0.60;;
3867;SDS011;1949;48.152;11.528;2023-08-06T14:24:47;2.10;;;0.63;;
3867;SDS011;1949;48.152;11.528;2023-08-06T14:27:23;0.80;;;0.80;;
3867;SDS011;1949;48.152;11.528;2023-08-06T14:29:50;0.70;;;0.60;;
3867;SDS011;1949;48.152;11.528;2023-08-06T14:32:16;0.70;;;0.70;;
3867;SDS011;1949;48.152;11.528;2023-08-06T14:34:44;1.10;;;0.90;;
3867;SDS011;1949;48.152;11.528;2023-08-06T14:37:17;1.13;;;0.67;;
3867;SDS011;1949;48.152;11.528;2023-08-06T14:39:43;1.30;;;0.93;;
3867;SDS011;1949;48.152;11.528;2023-08-06T14:42:11;3.00;;;1.93;;
3867;SDS011;1949;48.152;11.528;2023-08-06T14:44:36;0.70;;;0.60;;
3867;SDS011;1949;48.152;11.528;2023-08-06T14:47:04;1.67;;;0.70;;
3867;SDS011;1949;48.152;11.528;2023-08-06T14:52:07;1.00;;;0.60;;
3867;SDS011;1949;48.152;11.528;2023-08-06T14:54:32;1.43;;;0.60;;
3867;SDS011;1949;48.152;11.528;2023-08-06T14:56:59;0.80;;;0.60;;
3867;SDS011;1949;48.152;11.528;2023-08-06T14:59:26;0.93;;;0.70;;
3867;SDS011;1949;48.152;11.528;2023-08-06T15:01:53;0.80;;;0.73;;
3867;SDS011;1949;48.152;11.528;2023-08-06T15:04:18;0.70;;;0.60;;
3867;SDS011;1949;48.152;11.528;2023-08-06T15:06:45;2.50;;;1.20;;
3867;SDS011;1949;48.152;11.528;2023-08-06T15:09:11;1.40;;;1.10;;
3867;SDS011;1949;48.152;11.528;2023-08-06T15:11:42;3.60;;;1.97;;
3867;SDS011;1949;48.152;11.528;2023-08-06T15:14:08;3.27;;;2.20;;
3867;SDS011;1949;48.152;11.528;2023-08-06T15:16:34;0.90;;;0.70;;
3867;SDS011;1949;48.152;11.528;2023-08-06T15:19:03;2.07;;;1.40;;
3867;SDS011;1949;48.152;11.528;2023-08-06T15:24:12;1.10;;;0.73;;
3867;SDS011;1949;48.152;11.528;2023-08-06T15:26:38;2.47;;;0.87;;
3867;SDS011;1949;48.152;11.528;2023-08-06T15:29:04;1.50;;;1.13;;
3867;SDS011;1949;48.152;11.528;2023-08-06T15:31:35;0.80;;;0.60;;
3867;SDS011;1949;48.152;11.528;2023-08-06T15:34:03;6.87;;;0.83;;
3867;SDS011;1949;48.152;11.528;2023-08-06T15:36:33;1.20;;;0.80;;
3867;SDS011;1949;48.152;11.528;2023-08-06T15:41:38;4.40;;;0.90;;
3867;SDS011;1949;48.152;11.528;2023-08-06T15:44:07;6.27;;;3.27;;
3867;SDS011;1949;48.152;11.528;2023-08-06T15:46:33;1.20;;;1.00;;
3867;SDS011;1949;48.152;11.528;2023-08-06T15:49:00;3.53;;;1.40;;
3867;SDS011;1949;48.152;11.528;2023-08-06T15:54:01;1.53;;;0.80;;
3867;SDS011;1949;48.152;11.528;2023-08-06T15:56:28;1.57;;;1.00;;
3867;SDS011;1949;48.152;11.528;2023-08-06T15:58:55;1.43;;;1.20;;
3867;SDS011;1949;48.152;11.528;2023-08-06T16:01:22;1.33;;;0.70;;
3867;SDS011;1949;48.152;11.528;2023-08-06T16:03:49;0.93;;;0.70;;
3867;SDS011;1949;48.152;11.528;2023-08-06T16:06:16;1.00;;;0.87;;
3867;SDS011;1949;48.152;11.528;2023-08-06T16:08:42;3.87;;;1.30;;
3867;SDS011;1949;48.152;11.528;2023-08-06T16:11:09;1.40;;;1.13;;
3867;SDS011;1949;48.152;11.528;2023-08-06T16:13:35;1.23;;;1.00;;
3867;SDS011;1949;48.152;11.528;2023-08-06T16:16:03;1.27;;;0.83;;
3867;SDS011;1949;48.152;11.528;2023-08-06T16:18:38;1.37;;;0.90;;
3867;SDS011;1949;48.152;11.528;2023-08-06T16:21:14;1.83;;;1.10;;
3867;SDS011;1949;48.152;11.528;2023-08-06T16:23:40;0.70;;;0.70;;
3867;SDS011;1949;48.152;11.528;2023-08-06T16:28:40;2.47;;;1.30;;
3867;SDS011;1949;48.152;11.528;2023-08-06T16:31:06;1.00;;;0.70;;
3867;SDS011;1949;48.152;11.528;2023-08-06T16:36:05;1.80;;;1.10;;
3867;SDS011;1949;48.152;11.528;2023-08-06T16:38:33;1.23;;;0.70;;
3867;SDS011;1949;48.152;11.528;2023-08-06T16:40:59;1.70;;;1.03;;
3867;SDS011;1949;48.152;11.528;2023-08-06T16:43:26;1.87;;;1.10;;
3867;SDS011;1949;48.152;11.528;2023-08-06T16:45:58;9.07;;;1.10;;